createdAt,value
2024-03-05T00:00:30.150Z,101363.41
2024-03-05T00:02:56.819Z,101377.16
2024-03-05T00:05:23.429Z,101376.66
2024-03-05T00:07:50.133Z,101377.81
2024-03-05T00:10:17.037Z,101379.38
2024-03-05T00:12:43.649Z,101384.28
2024-03-05T00:15:10.624Z,101384.59
2024-03-05T00:17:38.208Z,101382.75
2024-03-05T00:20:05.488Z,101383.78
2024-03-05T00:22:32.131Z,101387.66
2024-03-05T00:24:59.865Z,101391.81
2024-03-05T00:27:27.169Z,101383.84
2024-03-05T00:29:53.806Z,101383.31
2024-03-05T00:32:20.420Z,101391.72
2024-03-05T00:34:47.114Z,101384.59
2024-03-05T00:37:13.792Z,101378.84
2024-03-05T00:39:40.405Z,101378.69
2024-03-05T00:42:07.094Z,101380.19
2024-03-05T00:44:33.731Z,101345.34
2024-03-05T00:47:00.314Z,101368.16
2024-03-05T00:49:27.732Z,101378.72
2024-03-05T00:51:54.381Z,101364.78
2024-03-05T00:54:20.935Z,101354.44
2024-03-05T00:56:48.129Z,101363.66
2024-03-05T00:59:14.680Z,101362.44
2024-03-05T01:01:41.395Z,101366.13
2024-03-05T01:04:09.277Z,101362.00
2024-03-05T01:06:36.281Z,101369.00
2024-03-05T01:09:03.943Z,101368.66
2024-03-05T01:11:31.017Z,101368.00
2024-03-05T01:13:57.790Z,101368.53
2024-03-05T01:16:24.649Z,101357.47
2024-03-05T01:18:51.223Z,101365.28
2024-03-05T01:21:17.844Z,101356.16
2024-03-05T01:23:44.962Z,101335.97
2024-03-05T01:26:11.466Z,101360.97
2024-03-05T01:28:38.155Z,101360.09
2024-03-05T01:31:04.796Z,101365.00
2024-03-05T01:33:31.476Z,101362.47
2024-03-05T01:35:58.192Z,101356.19
2024-03-05T01:38:25.091Z,101354.34
2024-03-05T01:40:51.800Z,101359.19
2024-03-05T01:43:21.076Z,101316.09
2024-03-05T01:45:49.335Z,101345.66
2024-03-05T01:48:17.426Z,101357.66
2024-03-05T01:50:46.106Z,101354.72
2024-03-05T01:53:16.469Z,101364.91
2024-03-05T01:55:44.786Z,101346.47
2024-03-05T01:58:15.836Z,101354.06
2024-03-05T02:00:43.292Z,101316.47
2024-03-05T02:03:12.311Z,101353.88
2024-03-05T02:05:46.058Z,101357.44
2024-03-05T02:08:16.132Z,101368.78
2024-03-05T02:10:47.291Z,101358.88
2024-03-05T02:13:13.969Z,101313.53
2024-03-05T02:15:40.740Z,101348.72
2024-03-05T02:18:09.031Z,101357.13
2024-03-05T02:20:35.924Z,101346.44
2024-03-05T02:23:03.588Z,101349.28
2024-03-05T02:25:32.612Z,101369.00
2024-03-05T02:28:00.902Z,101353.53
2024-03-05T02:30:27.608Z,101358.63
2024-03-05T02:32:54.476Z,101332.13
2024-03-05T02:35:21.671Z,101325.38
2024-03-05T02:37:48.242Z,101361.38
2024-03-05T02:40:15.268Z,101352.53
2024-03-05T02:42:42.357Z,101366.56
2024-03-05T02:45:09.652Z,101369.78
2024-03-05T02:47:43.383Z,101363.88
2024-03-05T02:50:11.054Z,101351.88
2024-03-05T02:52:39.868Z,101335.47
2024-03-05T02:55:10.821Z,101350.47
2024-03-05T02:57:42.466Z,101331.25
2024-03-05T03:00:10.483Z,101365.06
2024-03-05T03:02:37.895Z,101360.28
2024-03-05T03:05:04.891Z,101337.81
2024-03-05T03:07:31.499Z,101369.13
2024-03-05T03:09:58.068Z,101333.16
2024-03-05T03:12:24.680Z,101368.16
2024-03-05T03:14:51.255Z,101338.94
2024-03-05T03:17:17.885Z,101331.13
2024-03-05T03:19:44.502Z,101372.34
2024-03-05T03:22:11.621Z,101361.03
2024-03-05T03:24:38.090Z,101373.81
2024-03-05T03:27:04.721Z,101341.84
2024-03-05T03:29:31.347Z,101352.91
2024-03-05T03:31:58.122Z,101376.50
2024-03-05T03:34:24.765Z,101378.75
2024-03-05T03:36:51.549Z,101344.56
2024-03-05T03:39:27.183Z,101355.16
2024-03-05T03:41:55.109Z,101384.00
2024-03-05T03:44:23.515Z,101387.56
2024-03-05T03:46:51.512Z,101381.28
2024-03-05T03:49:27.033Z,101379.44
2024-03-05T03:51:55.023Z,101380.84
2024-03-05T03:54:22.933Z,101346.13
2024-03-05T03:56:50.201Z,101369.22
2024-03-05T03:59:17.052Z,101382.84
2024-03-05T04:01:47.692Z,101377.53
2024-03-05T04:04:14.972Z,101382.34
2024-03-05T04:06:41.991Z,101388.59
2024-03-05T04:09:15.030Z,101346.41
2024-03-05T04:11:43.035Z,101384.34
2024-03-05T04:14:10.358Z,101388.38
2024-03-05T04:16:41.524Z,101407.19
2024-03-05T04:19:08.468Z,101384.28
2024-03-05T04:21:45.656Z,101413.13
2024-03-05T04:24:14.499Z,101405.03
2024-03-05T04:26:42.599Z,101415.53
2024-03-05T04:29:18.081Z,101419.00
2024-03-05T04:31:50.720Z,101419.19
2024-03-05T04:34:21.810Z,101412.25
2024-03-05T04:36:51.554Z,101422.72
2024-03-05T04:39:18.166Z,101427.28
2024-03-05T04:41:45.661Z,101433.94
2024-03-05T04:44:12.337Z,101430.47
2024-03-05T04:46:39.507Z,101376.38
2024-03-05T04:49:07.500Z,101408.13
2024-03-05T04:51:34.447Z,101436.94
2024-03-05T04:54:00.960Z,101402.63
2024-03-05T04:56:27.799Z,101424.19
2024-03-05T04:58:54.580Z,101439.53
2024-03-05T05:01:22.951Z,101436.63
2024-03-05T05:03:49.662Z,101445.63
2024-03-05T05:06:16.543Z,101435.91
2024-03-05T05:08:43.958Z,101436.72
2024-03-05T05:11:10.924Z,101443.41
2024-03-05T05:13:37.732Z,101428.09
2024-03-05T05:16:06.332Z,101432.09
2024-03-05T05:18:33.123Z,101450.13
2024-03-05T05:21:00.808Z,101430.38
2024-03-05T05:23:27.427Z,101433.09
2024-03-05T05:25:54.169Z,101452.78
2024-03-05T05:28:21.355Z,101455.41
2024-03-05T05:30:47.936Z,101454.28
2024-03-05T05:33:14.844Z,101450.50
2024-03-05T05:35:41.519Z,101458.81
2024-03-05T05:38:11.620Z,101447.63
2024-03-05T05:40:38.296Z,101410.94
2024-03-05T05:43:05.301Z,101456.50
2024-03-05T05:45:31.898Z,101451.22
2024-03-05T05:47:59.322Z,101426.25
2024-03-05T05:50:32.490Z,101464.94
2024-03-05T05:52:59.691Z,101473.63
2024-03-05T05:55:27.283Z,101471.59
2024-03-05T05:57:55.778Z,101464.06
2024-03-05T06:00:46.904Z,101458.16
2024-03-05T06:03:13.727Z,101477.19
2024-03-05T06:05:43.553Z,101483.09
2024-03-05T06:08:13.282Z,101467.03
2024-03-05T06:10:40.637Z,101459.88
2024-03-05T06:13:08.282Z,101470.78
2024-03-05T06:15:37.068Z,101491.38
2024-03-05T06:18:03.995Z,101493.22
2024-03-05T06:20:30.715Z,101480.38
2024-03-05T06:22:59.368Z,101482.94
2024-03-05T06:25:28.487Z,101501.28
2024-03-05T06:27:55.862Z,101502.75
2024-03-05T06:30:24.011Z,101494.94
2024-03-05T06:32:52.758Z,101482.94
2024-03-05T06:35:23.760Z,101502.06
2024-03-05T06:37:51.384Z,101504.06
2024-03-05T06:40:24.854Z,101502.13
2024-03-05T06:42:53.419Z,101505.22
2024-03-05T06:45:28.870Z,101495.66
2024-03-05T06:48:07.306Z,101506.94
2024-03-05T06:50:39.511Z,101511.44
2024-03-05T06:53:28.974Z,101512.91
2024-03-05T06:56:14.601Z,101513.50
2024-03-05T06:58:47.147Z,101510.94
2024-03-05T07:01:16.072Z,101509.72
2024-03-05T07:03:46.263Z,101495.53
2024-03-05T07:06:16.038Z,101501.03
2024-03-05T07:08:44.301Z,101517.34
2024-03-05T07:11:13.270Z,101525.75
2024-03-05T07:13:44.777Z,101473.69
2024-03-05T07:16:17.740Z,101521.91
2024-03-05T07:18:48.568Z,101531.25
2024-03-05T07:21:18.171Z,101525.50
2024-03-05T07:23:47.259Z,101516.13
2024-03-05T07:26:17.076Z,101506.28
2024-03-05T07:28:44.497Z,101530.91
2024-03-05T07:31:12.358Z,101533.81
2024-03-05T07:33:39.786Z,101521.06
2024-03-05T07:36:07.808Z,101542.75
2024-03-05T07:38:34.679Z,101541.38
2024-03-05T07:41:08.512Z,101540.63
2024-03-05T07:43:40.780Z,101545.16
2024-03-05T07:46:08.517Z,101536.03
2024-03-05T07:48:35.116Z,101552.22
2024-03-05T07:51:01.711Z,101550.56
2024-03-05T07:53:28.283Z,101558.72
2024-03-05T07:55:55.127Z,101553.69
2024-03-05T07:58:22.313Z,101553.59
2024-03-05T08:00:49.033Z,101553.94
2024-03-05T08:03:15.639Z,101553.00
2024-03-05T08:05:43.154Z,101560.97
2024-03-05T08:08:10.852Z,101536.75
2024-03-05T08:10:37.664Z,101557.31
2024-03-05T08:13:04.480Z,101541.06
2024-03-05T08:15:31.060Z,101554.00
2024-03-05T08:17:58.258Z,101557.41
2024-03-05T08:20:27.615Z,101563.88
2024-03-05T08:22:55.830Z,101563.88
2024-03-05T08:25:23.423Z,101564.41
2024-03-05T08:27:52.338Z,101571.88
2024-03-05T08:30:23.227Z,101544.50
2024-03-05T08:32:52.668Z,101561.81
2024-03-05T08:35:20.146Z,101566.00
2024-03-05T08:37:48.705Z,101570.84
2024-03-05T08:40:17.561Z,101571.00
2024-03-05T08:42:46.441Z,101573.47
2024-03-05T08:45:15.977Z,101527.81
2024-03-05T08:47:46.186Z,101567.41
2024-03-05T08:50:13.685Z,101594.03
2024-03-05T08:52:45.042Z,101590.84
2024-03-05T08:55:13.857Z,101581.09
2024-03-05T08:57:41.486Z,101581.34
2024-03-05T09:02:48.574Z,101591.09
2024-03-05T09:05:15.385Z,101581.59
2024-03-05T09:07:43.903Z,101560.59
2024-03-05T09:10:11.389Z,101552.50
2024-03-05T09:12:38.355Z,101566.34
2024-03-05T09:15:07.172Z,101583.78
2024-03-05T09:17:35.149Z,101581.84
2024-03-05T09:20:14.956Z,101578.31
2024-03-05T09:22:48.503Z,101579.88
2024-03-05T09:25:16.929Z,101569.13
2024-03-05T09:27:46.072Z,101584.19
2024-03-05T09:30:16.495Z,101563.34
2024-03-05T09:32:44.832Z,101587.41
2024-03-05T09:35:13.847Z,101591.69
2024-03-05T09:37:41.187Z,101583.56
2024-03-05T09:40:08.349Z,101598.44
2024-03-05T09:42:38.411Z,101605.22
2024-03-05T09:45:07.789Z,101594.97
2024-03-05T09:47:38.746Z,101590.75
2024-03-05T09:50:07.155Z,101599.91
2024-03-05T09:52:35.449Z,101592.59
2024-03-05T09:55:02.770Z,101598.44
2024-03-05T09:57:40.196Z,101600.56
2024-03-05T10:00:18.560Z,101583.16
2024-03-05T10:02:51.805Z,101593.72
2024-03-05T10:05:26.288Z,101599.63
2024-03-05T10:07:53.076Z,101595.06
2024-03-05T10:10:21.122Z,101600.03
2024-03-05T10:12:48.166Z,101599.00
2024-03-05T10:15:22.127Z,101604.03
2024-03-05T10:17:51.863Z,101598.13
2024-03-05T10:20:27.008Z,101578.41
2024-03-05T10:22:59.642Z,101594.06
2024-03-05T10:25:28.055Z,101615.97
2024-03-05T10:27:56.040Z,101591.84
2024-03-05T10:30:28.705Z,101599.69
2024-03-05T10:32:58.418Z,101612.63
2024-03-05T10:35:25.163Z,101585.34
2024-03-05T10:38:04.217Z,101618.16
2024-03-05T10:40:36.622Z,101597.41
2024-03-05T10:43:09.888Z,101619.31
2024-03-05T10:45:39.470Z,101615.41
2024-03-05T10:48:12.316Z,101622.47
2024-03-05T10:50:41.430Z,101601.66
2024-03-05T10:53:09.606Z,101616.09
2024-03-05T10:55:38.739Z,101617.34
2024-03-05T10:58:12.327Z,101617.38
2024-03-05T11:00:40.921Z,101621.44
2024-03-05T11:03:12.847Z,101623.16
2024-03-05T11:05:51.070Z,101611.91
2024-03-05T11:08:20.730Z,101612.97
2024-03-05T11:10:54.590Z,101595.78
2024-03-05T11:13:22.807Z,101606.31
2024-03-05T11:15:52.442Z,101613.47
2024-03-05T11:18:29.626Z,101593.06
2024-03-05T11:20:57.099Z,101612.44
2024-03-05T11:23:30.679Z,101601.88
2024-03-05T11:26:04.959Z,101611.91
2024-03-05T11:28:36.836Z,101588.47
2024-03-05T11:31:19.236Z,101618.91
2024-03-05T11:33:58.985Z,101598.00
2024-03-05T11:36:31.302Z,101603.78
2024-03-05T11:39:01.879Z,101602.75
2024-03-05T11:41:34.920Z,101570.25
2024-03-05T11:44:03.901Z,101600.25
2024-03-05T11:46:44.969Z,101580.91
2024-03-05T11:49:12.850Z,101586.63
2024-03-05T11:51:41.644Z,101583.22
2024-03-05T11:54:12.574Z,101578.72
2024-03-05T11:56:47.178Z,101588.09
2024-03-05T11:59:14.071Z,101577.22
2024-03-05T12:01:44.392Z,101592.25
2024-03-05T12:04:13.072Z,101596.63
2024-03-05T12:06:42.373Z,101595.56
2024-03-05T12:09:20.053Z,101600.22
2024-03-05T12:12:11.084Z,101596.34
2024-03-05T12:14:38.883Z,101588.31
2024-03-05T12:17:08.712Z,101584.78
2024-03-05T12:19:36.054Z,101601.94
2024-03-05T12:22:02.865Z,101611.69
2024-03-05T12:24:30.444Z,101612.25
2024-03-05T12:26:59.044Z,101618.31
2024-03-05T12:29:29.157Z,101613.56
2024-03-05T12:31:57.550Z,101625.25
2024-03-05T12:34:24.742Z,101615.00
2024-03-05T12:36:51.991Z,101603.41
2024-03-05T12:39:18.943Z,101611.47
2024-03-05T12:41:58.118Z,101595.41
2024-03-05T12:44:24.771Z,101593.34
2024-03-05T12:46:51.614Z,101611.00
2024-03-05T12:49:18.795Z,101616.50
2024-03-05T12:51:45.409Z,101608.31
2024-03-05T12:54:13.282Z,101607.66
2024-03-05T12:56:46.422Z,101614.34
2024-03-05T12:59:20.550Z,101617.31
2024-03-05T13:01:47.282Z,101584.78
2024-03-05T13:04:13.892Z,101574.78
2024-03-05T13:06:40.630Z,101598.88
2024-03-05T13:09:07.274Z,101609.16
2024-03-05T13:11:34.025Z,101604.28
2024-03-05T13:14:10.388Z,101604.06
2024-03-05T13:16:37.641Z,101618.72
2024-03-05T13:19:04.250Z,101619.22
2024-03-05T13:21:31.224Z,101625.88
2024-03-05T13:23:59.131Z,101623.09
2024-03-05T13:26:25.893Z,101623.00
2024-03-05T13:28:52.498Z,101632.06
2024-03-05T13:31:19.134Z,101631.03
2024-03-05T13:33:45.821Z,101636.19
2024-03-05T13:36:13.410Z,101628.84
2024-03-05T13:38:39.997Z,101642.91
2024-03-05T13:41:07.797Z,101633.78
2024-03-05T13:43:35.579Z,101624.75
2024-03-05T13:46:04.662Z,101626.81
2024-03-05T13:48:34.526Z,101636.09
2024-03-05T13:51:03.462Z,101628.66
2024-03-05T13:53:30.110Z,101633.78
2024-03-05T13:55:56.979Z,101632.69
2024-03-05T13:58:23.861Z,101618.38
2024-03-05T14:00:50.813Z,101629.16
2024-03-05T14:03:17.507Z,101636.09
2024-03-05T14:05:44.066Z,101642.97
2024-03-05T14:08:13.668Z,101614.31
2024-03-05T14:10:43.613Z,101651.34
2024-03-05T14:13:18.945Z,101635.47
2024-03-05T14:15:45.617Z,101648.50
2024-03-05T14:18:12.508Z,101639.25
2024-03-05T14:20:42.031Z,101617.22
2024-03-05T14:23:09.308Z,101639.75
2024-03-05T14:25:36.074Z,101630.91
2024-03-05T14:28:03.103Z,101641.56
2024-03-05T14:30:31.471Z,101650.72
2024-03-05T14:33:00.070Z,101652.94
2024-03-05T14:35:27.402Z,101628.94
2024-03-05T14:37:54.412Z,101663.31
2024-03-05T14:40:22.360Z,101671.53
2024-03-05T14:42:50.526Z,101661.63
2024-03-05T14:45:17.561Z,101653.69
2024-03-05T14:47:45.314Z,101667.34
2024-03-05T14:50:12.217Z,101662.00
2024-03-05T14:52:38.946Z,101640.13
2024-03-05T14:55:06.116Z,101666.94
2024-03-05T14:57:32.607Z,101658.72
2024-03-05T14:59:59.234Z,101669.56
2024-03-05T15:02:25.991Z,101660.56
2024-03-05T15:04:52.907Z,101666.13
2024-03-05T15:07:19.568Z,101668.53
2024-03-05T15:09:46.759Z,101677.06
2024-03-05T15:12:13.966Z,101674.00
2024-03-05T15:14:43.422Z,101649.16
2024-03-05T15:17:10.679Z,101641.69
2024-03-05T15:19:37.506Z,101679.78
2024-03-05T15:22:04.324Z,101656.47
2024-03-05T15:24:30.986Z,101681.00
2024-03-05T15:27:04.396Z,101673.31
2024-03-05T15:29:32.705Z,101677.94
2024-03-05T15:32:01.274Z,101684.41
2024-03-05T15:34:28.239Z,101679.66
2024-03-05T15:36:55.938Z,101692.53
2024-03-05T15:39:22.662Z,101679.44
2024-03-05T15:41:50.057Z,101675.44
2024-03-05T15:44:17.915Z,101685.06
2024-03-05T15:46:45.783Z,101681.41
2024-03-05T15:49:12.729Z,101682.72
2024-03-05T15:51:39.458Z,101700.22
2024-03-05T15:54:06.053Z,101694.75
2024-03-05T15:56:45.994Z,101692.06
2024-03-05T15:59:33.216Z,101708.00
2024-03-05T16:01:59.933Z,101705.31
2024-03-05T16:04:48.769Z,101681.09
2024-03-05T16:07:13.494Z,101696.09
2024-03-05T16:09:40.762Z,101710.19
2024-03-05T16:12:12.123Z,101705.97
2024-03-05T16:14:41.779Z,101691.31
2024-03-05T16:17:11.975Z,101708.66
2024-03-05T16:19:39.699Z,101710.97
2024-03-05T16:22:06.266Z,101727.97
2024-03-05T16:24:32.925Z,101719.56
2024-03-05T16:26:59.768Z,101720.91
2024-03-05T16:29:27.192Z,101726.81
2024-03-05T16:31:54.863Z,101714.69
2024-03-05T16:34:21.560Z,101715.88
2024-03-05T16:36:51.011Z,101730.31
2024-03-05T16:39:19.630Z,101729.50
2024-03-05T16:41:46.566Z,101739.38
2024-03-05T16:44:13.338Z,101734.00
2024-03-05T16:46:42.220Z,101737.22
2024-03-05T16:49:09.762Z,101707.06
2024-03-05T16:51:37.260Z,101732.84
2024-03-05T16:54:04.394Z,101718.88
2024-03-05T16:56:30.921Z,101752.31
2024-03-05T16:58:57.656Z,101751.09
2024-03-05T17:01:25.149Z,101753.53
2024-03-05T17:03:54.720Z,101750.72
2024-03-05T17:06:23.349Z,101758.47
2024-03-05T17:08:50.676Z,101759.34
2024-03-05T17:11:17.650Z,101764.47
2024-03-05T17:13:47.492Z,101767.13
2024-03-05T17:16:14.907Z,101762.38
2024-03-05T17:18:42.170Z,101749.03
2024-03-05T17:21:09.693Z,101755.06
2024-03-05T17:23:42.207Z,101767.75
2024-03-05T17:26:11.165Z,101775.25
2024-03-05T17:28:38.146Z,101781.06
2024-03-05T17:31:04.939Z,101787.81
2024-03-05T17:33:32.187Z,101786.97
2024-03-05T17:35:59.295Z,101789.44
2024-03-05T17:38:29.524Z,101790.56
2024-03-05T17:40:58.324Z,101794.81
2024-03-05T17:43:25.676Z,101766.44
2024-03-05T17:45:52.350Z,101797.31
2024-03-05T17:48:20.491Z,101805.91
2024-03-05T17:50:47.222Z,101810.53
2024-03-05T17:53:14.082Z,101803.16
2024-03-05T17:55:40.810Z,101814.31
2024-03-05T17:58:07.411Z,101803.56
2024-03-05T18:00:46.143Z,101810.50
2024-03-05T18:03:15.394Z,101806.50
2024-03-05T18:05:46.379Z,101802.31
2024-03-05T18:08:14.551Z,101801.78
2024-03-05T18:10:42.907Z,101803.47
2024-03-05T18:13:10.586Z,101791.53
2024-03-05T18:15:38.365Z,101814.56
2024-03-05T18:18:07.229Z,101788.72
2024-03-05T18:20:37.789Z,101816.88
2024-03-05T18:23:05.733Z,101817.72
2024-03-05T18:25:36.796Z,101817.97
2024-03-05T18:28:05.218Z,101819.75
2024-03-05T18:30:43.044Z,101811.00
2024-03-05T18:33:12.164Z,101822.28
2024-03-05T18:35:41.114Z,101819.31
2024-03-05T18:40:40.966Z,101828.78
2024-03-05T18:43:09.296Z,101823.41
2024-03-05T18:45:37.088Z,101795.28
2024-03-05T18:48:09.635Z,101828.09
2024-03-05T18:50:37.299Z,101783.50
2024-03-05T18:53:06.963Z,101818.31
2024-03-05T18:55:36.744Z,101817.91
2024-03-05T18:58:07.622Z,101810.25
2024-03-05T19:00:34.815Z,101826.97
2024-03-05T19:03:02.108Z,101823.41
2024-03-05T19:05:28.783Z,101822.34
2024-03-05T19:07:55.618Z,101797.28
2024-03-05T19:10:23.706Z,101804.59
2024-03-05T19:12:50.251Z,101831.34
2024-03-05T19:15:22.025Z,101811.56
2024-03-05T19:17:49.175Z,101835.59
2024-03-05T19:20:16.907Z,101837.53
2024-03-05T19:22:43.877Z,101838.00
2024-03-05T19:25:12.794Z,101831.06
2024-03-05T19:27:41.112Z,101829.81
2024-03-05T19:30:12.772Z,101843.63
2024-03-05T19:32:43.346Z,101844.25
2024-03-05T19:35:12.387Z,101845.50
2024-03-05T19:37:43.871Z,101841.63
2024-03-05T19:40:18.971Z,101852.22
2024-03-05T19:42:49.339Z,101840.78
2024-03-05T19:45:16.003Z,101822.94
2024-03-05T19:47:42.825Z,101853.22
2024-03-05T19:50:15.012Z,101850.53
2024-03-05T19:52:41.938Z,101849.56
2024-03-05T19:55:09.623Z,101844.25
2024-03-05T19:57:36.624Z,101837.22
2024-03-05T20:00:12.722Z,101850.00
2024-03-05T20:02:40.128Z,101834.13
2024-03-05T20:05:07.165Z,101853.47
2024-03-05T20:07:33.767Z,101850.44
2024-03-05T20:10:02.068Z,101852.41
2024-03-05T20:12:28.953Z,101844.38
2024-03-05T20:14:56.255Z,101857.22
2024-03-05T20:17:24.234Z,101857.47
2024-03-05T20:19:52.285Z,101843.81
2024-03-05T20:22:19.775Z,101861.13
2024-03-05T20:24:48.551Z,101861.19
2024-03-05T20:27:17.011Z,101862.00
2024-03-05T20:29:43.819Z,101854.16
2024-03-05T20:32:10.733Z,101856.56
2024-03-05T20:34:39.416Z,101843.75
2024-03-05T20:37:06.241Z,101856.28
2024-03-05T20:39:32.876Z,101851.28
2024-03-05T20:41:59.489Z,101852.13
2024-03-05T20:44:26.582Z,101872.59
2024-03-05T20:46:53.426Z,101869.94
2024-03-05T20:49:20.285Z,101867.38
2024-03-05T20:51:46.983Z,101873.84
2024-03-05T20:54:13.639Z,101864.00
2024-03-05T20:56:40.230Z,101867.84
2024-03-05T20:59:06.977Z,101871.13
2024-03-05T21:01:33.811Z,101856.31
2024-03-05T21:04:01.573Z,101859.28
2024-03-05T21:06:28.385Z,101857.75
2024-03-05T21:08:59.673Z,101872.88
2024-03-05T21:11:26.448Z,101863.66
2024-03-05T21:13:53.279Z,101868.94
2024-03-05T21:16:20.198Z,101861.81
2024-03-05T21:18:47.426Z,101837.31
2024-03-05T21:21:17.848Z,101865.78
2024-03-05T21:23:45.101Z,101860.78
2024-03-05T21:26:27.377Z,101872.06
2024-03-05T21:29:01.332Z,101849.03
2024-03-05T21:31:30.035Z,101878.47
2024-03-05T21:33:56.698Z,101879.47
2024-03-05T21:36:23.710Z,101878.88
2024-03-05T21:38:50.399Z,101864.53
2024-03-05T21:41:17.234Z,101877.53
2024-03-05T21:43:45.106Z,101884.13
2024-03-05T21:46:11.770Z,101885.81
2024-03-05T21:48:38.398Z,101884.25
2024-03-05T21:51:09.845Z,101876.00
2024-03-05T21:53:39.681Z,101867.44
2024-03-05T21:56:06.877Z,101871.13
2024-03-05T21:58:34.105Z,101883.22
2024-03-05T22:01:01.100Z,101888.94
2024-03-05T22:03:29.511Z,101888.53
2024-03-05T22:05:59.633Z,101890.44
2024-03-05T22:08:28.908Z,101861.34
2024-03-05T22:10:58.387Z,101878.00
2024-03-05T22:13:26.071Z,101854.59
2024-03-05T22:15:52.830Z,101889.78
2024-03-05T22:18:19.475Z,101873.28
2024-03-05T22:20:46.122Z,101891.06
2024-03-05T22:23:13.891Z,101874.31
2024-03-05T22:25:41.978Z,101893.31
2024-03-05T22:28:08.684Z,101883.81
2024-03-05T22:30:35.452Z,101902.84
2024-03-05T22:33:02.228Z,101897.41
2024-03-05T22:35:28.929Z,101885.56
2024-03-05T22:37:58.329Z,101906.41
2024-03-05T22:40:25.302Z,101911.16
2024-03-05T22:42:52.952Z,101904.00
2024-03-05T22:45:22.538Z,101909.66
2024-03-05T22:47:49.826Z,101914.47
2024-03-05T22:50:17.173Z,101906.78
2024-03-05T22:52:45.654Z,101905.88
2024-03-05T22:55:13.138Z,101902.66
2024-03-05T22:57:39.924Z,101914.06
2024-03-05T23:00:25.960Z,101896.53
2024-03-05T23:02:53.051Z,101919.50
2024-03-05T23:05:20.657Z,101918.03
2024-03-05T23:07:47.986Z,101910.28
2024-03-05T23:10:18.449Z,101905.53
2024-03-05T23:12:45.724Z,101914.84
2024-03-05T23:15:16.403Z,101914.00
2024-03-05T23:17:43.981Z,101903.69
2024-03-05T23:20:13.891Z,101909.97
2024-03-05T23:22:40.867Z,101909.91
2024-03-05T23:25:09.835Z,101915.16
2024-03-05T23:27:37.196Z,101923.72
2024-03-05T23:30:06.030Z,101931.16
2024-03-05T23:32:33.286Z,101927.44
2024-03-05T23:35:03.522Z,101930.72
2024-03-05T23:37:30.120Z,101940.00
2024-03-05T23:39:58.035Z,101931.69
2024-03-05T23:42:25.663Z,101931.91
2024-03-05T23:44:53.607Z,101918.16
2024-03-05T23:47:20.450Z,101934.25
2024-03-05T23:49:47.865Z,101945.16
2024-03-05T23:52:14.689Z,101938.69
2024-03-05T23:54:44.407Z,101916.09
2024-03-05T23:57:11.542Z,101937.13
2024-03-05T23:59:41.817Z,101945.16
